createdAt,value
2023-01-10T00:04:33.770Z,958.11
2023-01-10T00:09:35.692Z,958.17
2023-01-10T00:14:37.829Z,958.28
2023-01-10T00:19:39.712Z,958.29
2023-01-10T00:24:40.996Z,958.27
2023-01-10T00:29:43.141Z,958.4
2023-01-10T00:34:44.548Z,958.39
2023-01-10T00:39:46.462Z,958.47
2023-01-10T00:44:48.447Z,958.56
2023-01-10T00:49:50.476Z,958.62
2023-01-10T00:54:51.960Z,958.77
2023-01-10T00:59:53.914Z,958.79
2023-01-10T01:04:55.725Z,958.8
2023-01-10T01:09:57.754Z,958.96
2023-01-10T01:14:59.079Z,959.06
2023-01-10T01:20:00.433Z,959.1
2023-01-10T01:25:02.454Z,959.19
2023-01-10T01:30:04.249Z,959.36
2023-01-10T01:35:06.248Z,959.46
2023-01-10T01:40:08.075Z,959.48
2023-01-10T01:45:09.248Z,959.59
2023-01-10T01:50:11.206Z,959.59
2023-01-10T01:55:12.812Z,959.62
2023-01-10T02:00:14.160Z,959.72
2023-01-10T02:05:16.039Z,959.81
2023-01-10T02:10:17.493Z,959.93
2023-01-10T02:15:18.986Z,960.05
2023-01-10T02:50:30.984Z,960.22
2023-01-10T02:55:32.249Z,960.33
2023-01-10T03:05:35.381Z,960.31
2023-01-10T03:10:37.403Z,960.45
2023-01-10T03:20:41.257Z,960.67
2023-01-10T03:25:43.226Z,960.77
2023-01-10T03:30:45.397Z,960.91
2023-01-10T03:35:46.898Z,961
2023-01-10T03:40:48.232Z,961
2023-01-10T03:45:49.624Z,961.17
2023-01-10T03:50:51.419Z,961.29
2023-01-10T03:55:52.871Z,961.45
2023-01-10T04:00:54.681Z,961.51
2023-01-10T04:05:55.807Z,961.57
2023-01-10T04:10:57.452Z,961.62
2023-01-10T04:15:59.006Z,961.72
2023-01-10T04:21:00.932Z,961.83
2023-01-10T04:26:02.662Z,961.98
2023-01-10T04:31:03.861Z,962
2023-01-10T04:36:05.188Z,962.06
2023-01-10T04:41:06.712Z,962.22
2023-01-10T04:46:08.078Z,962.28
2023-01-10T04:51:09.588Z,962.32
2023-01-10T04:56:11.363Z,962.4
2023-01-10T05:01:13.385Z,962.51
2023-01-10T05:06:15.079Z,962.67
2023-01-10T05:11:16.534Z,962.7
2023-01-10T05:16:18.571Z,962.79
2023-01-10T05:21:19.852Z,962.91
2023-01-10T05:26:21.772Z,962.94
2023-01-10T05:31:23.846Z,963.04
2023-01-10T05:36:25.702Z,963.14
2023-01-10T05:41:27.735Z,963.21
2023-01-10T05:46:29.001Z,963.34
2023-01-10T05:51:31.040Z,963.42
2023-01-10T05:56:32.692Z,963.53
2023-01-10T06:01:33.795Z,963.66
2023-01-10T06:06:35.557Z,963.74
2023-01-10T06:11:36.937Z,963.81
2023-01-10T06:16:38.741Z,963.93
2023-01-10T06:21:40.326Z,964.18
2023-01-10T06:26:42.374Z,964.23
2023-01-10T06:31:43.826Z,964.32
2023-01-10T06:36:45.920Z,964.46
2023-01-10T06:41:47.416Z,964.65
2023-01-10T06:46:48.883Z,964.83
2023-01-10T06:51:50.836Z,965
2023-01-10T06:56:52.997Z,965.01
2023-01-10T07:01:54.768Z,965.17
2023-01-10T07:06:56.672Z,965.3
2023-01-10T07:11:57.986Z,965.48
2023-01-10T07:16:59.496Z,965.63
2023-01-10T07:22:00.888Z,965.8
2023-01-10T07:27:08.416Z,965.87
2023-01-10T07:32:09.959Z,965.96
2023-01-10T07:37:11.948Z,966.1
2023-01-10T07:42:13.765Z,966.11
2023-01-10T07:47:15.567Z,966.32
2023-01-10T07:52:16.955Z,966.34
2023-01-10T07:57:18.693Z,966.45
2023-01-10T08:02:20.771Z,966.6
2023-01-10T08:07:22.560Z,966.72
2023-01-10T08:12:24.257Z,966.79
2023-01-10T08:17:25.849Z,966.9
2023-01-10T08:22:27.726Z,966.94
2023-01-10T08:27:29.329Z,967.05
2023-01-10T08:32:31.179Z,967.17
2023-01-10T08:37:32.819Z,967.23
2023-01-10T08:42:34.518Z,967.29
2023-01-10T08:47:36.303Z,967.39
2023-01-10T08:52:37.806Z,967.42
2023-01-10T08:57:39.391Z,967.55
2023-01-10T09:02:41.441Z,967.62
2023-01-10T09:07:42.690Z,967.7
2023-01-10T09:12:44.082Z,967.78
2023-01-10T09:17:46.179Z,967.88
2023-01-10T09:22:47.736Z,967.91
2023-01-10T09:27:49.242Z,967.98
2023-01-10T09:32:51.122Z,968.02
2023-01-10T09:37:53.132Z,968.15
2023-01-10T09:42:54.699Z,968.26
2023-01-10T09:47:56.740Z,968.37
2023-01-10T09:52:58.302Z,968.4
2023-01-10T09:57:59.856Z,968.44
2023-01-10T10:03:01.812Z,968.44
2023-01-10T10:08:03.976Z,968.42
2023-01-10T10:13:05.924Z,968.43
2023-01-10T10:18:07.051Z,968.43
2023-01-10T10:23:09.145Z,968.31
2023-01-10T10:28:11.186Z,968.24
2023-01-10T10:33:12.478Z,968.23
2023-01-10T10:38:14.361Z,968.2
2023-01-10T10:43:16.295Z,968.14
2023-01-10T10:48:18.453Z,968.21
2023-01-10T10:53:20.626Z,968.13
2023-01-10T10:58:22.703Z,968.14
2023-01-10T11:03:24.802Z,968.21
2023-01-10T11:08:26.739Z,968.3
2023-01-10T11:13:28.527Z,968.42
2023-01-10T11:18:30.714Z,968.43
2023-01-10T11:23:32.928Z,968.51
2023-01-10T11:28:34.382Z,968.47
2023-01-10T11:33:35.858Z,968.48
2023-01-10T11:38:37.147Z,968.49
2023-01-10T11:43:39.018Z,968.47
2023-01-10T11:49:03.552Z,968.42
2023-01-10T11:53:42.135Z,968.45
2023-01-10T11:58:44.183Z,968.47
2023-01-10T12:03:45.655Z,968.57
2023-01-10T12:08:47.699Z,968.52
2023-01-10T12:13:49.116Z,968.52
2023-01-10T12:18:51.065Z,968.43
2023-01-10T12:23:53.017Z,968.43
2023-01-10T12:28:54.689Z,968.33
2023-01-10T12:33:56.874Z,968.43
2023-01-10T12:38:58.652Z,968.39
2023-01-10T12:44:00.809Z,968.51
2023-01-10T12:49:02.386Z,968.56
2023-01-10T12:54:04.492Z,968.63
2023-01-10T12:59:05.987Z,968.63
2023-01-10T13:04:07.656Z,968.67
2023-01-10T13:09:09.150Z,968.7
2023-01-10T13:14:10.300Z,968.63
2023-01-10T13:19:11.898Z,968.67
2023-01-10T13:24:13.634Z,968.6
2023-01-10T13:29:14.896Z,968.66
2023-01-10T13:34:16.700Z,968.68
2023-01-10T13:39:18.662Z,968.66
2023-01-10T13:44:20.050Z,968.72
2023-01-10T13:49:21.629Z,968.77
2023-01-10T13:54:23.482Z,968.73
2023-01-10T13:59:25.116Z,968.68
2023-01-10T14:04:26.892Z,968.77
2023-01-10T14:09:28.669Z,968.73
2023-01-10T14:14:29.952Z,968.72
2023-01-10T14:19:31.723Z,968.78
2023-01-10T14:24:33.841Z,968.77
2023-01-10T14:29:35.624Z,968.81
2023-01-10T14:34:37.357Z,968.86
2023-01-10T14:39:39.477Z,968.89
2023-01-10T14:44:41.409Z,968.88
2023-01-10T14:49:42.915Z,968.87
2023-01-10T14:54:44.220Z,968.92
2023-01-10T14:59:45.451Z,968.88
2023-01-10T15:04:46.771Z,968.83
2023-01-10T15:09:48.771Z,968.84
2023-01-10T15:14:50.268Z,968.84
2023-01-10T15:19:51.338Z,968.85
2023-01-10T15:24:52.741Z,968.87
2023-01-10T15:29:53.965Z,968.82
2023-01-10T15:34:55.248Z,968.82
2023-01-10T15:39:57.380Z,968.73
2023-01-10T15:44:59.415Z,968.71
2023-01-10T15:50:01.409Z,968.63
2023-01-10T15:55:03.143Z,968.64
2023-01-10T16:00:04.440Z,968.7
2023-01-10T16:05:05.835Z,968.69
2023-01-10T16:10:07.263Z,968.64
2023-01-10T16:15:09.285Z,968.65
2023-01-10T16:20:10.912Z,968.68
2023-01-10T16:25:12.185Z,968.63
2023-01-10T16:30:13.507Z,968.63
2023-01-10T16:35:15.499Z,968.52
2023-01-10T16:40:16.959Z,968.58
2023-01-10T16:45:18.340Z,968.62
2023-01-10T16:50:19.554Z,968.63
2023-01-10T17:30:32.549Z,968.45
2023-01-10T17:45:37.869Z,968.36
2023-01-10T17:55:41.220Z,968.32
2023-01-10T18:00:43.310Z,968.37
2023-01-10T18:20:48.976Z,968.17
2023-01-10T18:25:50.165Z,968.18
2023-01-10T18:30:51.651Z,968.23
2023-01-10T18:35:52.851Z,968.31
2023-01-10T18:40:54.418Z,968.25
2023-01-10T18:45:56.017Z,968.23
2023-01-10T18:50:57.758Z,968.15
2023-01-10T18:55:59.386Z,968.15
2023-01-10T19:01:01.208Z,968.13
2023-01-10T19:06:02.660Z,968.11
2023-01-10T19:11:13.234Z,968.06
2023-01-10T19:16:05.738Z,968
2023-01-10T19:21:07.736Z,967.86
2023-01-10T19:26:09.171Z,967.86
2023-01-10T19:31:10.825Z,967.9
2023-01-10T19:36:12.631Z,967.9
2023-01-10T19:41:14.784Z,967.88
2023-01-10T19:46:16.229Z,967.83
2023-01-10T19:51:17.574Z,967.77
2023-01-10T19:56:19.421Z,967.8
2023-01-10T20:01:20.868Z,967.83
2023-01-10T20:06:22.428Z,967.74
2023-01-10T20:11:23.756Z,967.72
2023-01-10T20:16:25.224Z,967.6
2023-01-10T20:21:26.301Z,967.55
2023-01-10T20:26:28.293Z,967.51
2023-01-10T20:31:29.802Z,967.46
2023-01-10T20:36:31.274Z,967.39
2023-01-10T20:41:33.453Z,967.41
2023-01-10T20:46:34.972Z,967.41
2023-01-10T20:51:36.267Z,967.44
2023-01-10T20:56:38.367Z,967.44
2023-01-10T21:01:39.928Z,967.38
2023-01-10T21:06:41.753Z,967.45
2023-01-10T21:11:57.835Z,967.4
2023-01-10T21:16:44.243Z,967.32
2023-01-10T21:21:46.465Z,967.22
2023-01-10T21:26:48.502Z,967.27
2023-01-10T21:31:50.131Z,967.25
2023-01-10T21:36:51.659Z,967.25
2023-01-10T21:41:53.007Z,967.21
2023-01-10T21:46:55.157Z,967.22
2023-01-10T21:51:56.544Z,967.15
2023-01-10T21:56:58.251Z,967.01
2023-01-10T22:01:59.635Z,967.03
2023-01-10T22:07:01.129Z,966.94
2023-01-10T22:12:02.417Z,966.89
2023-01-10T22:17:04.593Z,966.95
2023-01-10T22:22:06.374Z,966.91
2023-01-10T22:27:08.486Z,966.9
2023-01-10T22:32:10.075Z,966.86
2023-01-10T22:37:11.351Z,966.78
2023-01-10T22:42:13.523Z,966.76
2023-01-10T22:47:14.881Z,966.74
2023-01-10T22:52:16.968Z,966.66
2023-01-10T22:57:18.573Z,966.73
2023-01-10T23:02:20.313Z,966.71
2023-01-10T23:07:22.528Z,966.67
2023-01-10T23:12:23.967Z,966.63
2023-01-10T23:17:25.755Z,966.61
2023-01-10T23:22:27.354Z,966.62
2023-01-10T23:27:29.067Z,966.54
2023-01-10T23:32:30.753Z,966.38
2023-01-10T23:37:32.746Z,966.41
2023-01-10T23:42:34.084Z,966.33
2023-01-10T23:47:35.857Z,966.31
2023-01-10T23:52:37.333Z,966.3
2023-01-10T23:57:38.888Z,966.22
